createdAt,value
2023-02-07T00:00:15.157Z,63.79
2023-02-07T00:01:15.341Z,63.89
2023-02-07T00:02:15.495Z,63.79
2023-02-07T00:03:15.724Z,63.89
2023-02-07T00:04:15.874Z,63.79
2023-02-07T00:05:16.007Z,63.68
2023-02-07T00:06:16.175Z,63.68
2023-02-07T00:07:16.344Z,63.71
2023-02-07T00:08:16.504Z,63.92
2023-02-07T00:09:16.689Z,63.92
2023-02-07T00:10:16.862Z,63.89
2023-02-07T00:11:17.075Z,64.03
2023-02-07T00:12:17.199Z,63.82
2023-02-07T00:13:17.381Z,63.92
2023-02-07T00:14:17.616Z,63.92
2023-02-07T00:15:17.719Z,64.03
2023-02-07T00:16:17.944Z,63.82
2023-02-07T00:17:18.068Z,63.92
2023-02-07T00:18:18.240Z,63.92
2023-02-07T00:19:18.435Z,64.13
2023-02-07T00:20:18.590Z,63.92
2023-02-07T00:21:18.761Z,64.03
2023-02-07T00:22:18.932Z,63.92
2023-02-07T00:23:19.087Z,63.92
2023-02-07T00:24:19.266Z,64.03
2023-02-07T00:25:19.426Z,64.03
2023-02-07T00:26:19.604Z,63.92
2023-02-07T00:27:19.791Z,63.92
2023-02-07T00:28:20.111Z,64.03
2023-02-07T00:29:20.161Z,64.03
2023-02-07T00:30:20.345Z,64.03
2023-02-07T00:31:20.609Z,64.03
2023-02-07T00:32:20.664Z,63.92
2023-02-07T00:33:20.834Z,64.03
2023-02-07T00:34:21.023Z,64.23
2023-02-07T00:35:21.181Z,64.34
2023-02-07T00:36:21.393Z,64.34
2023-02-07T00:37:21.528Z,64.23
2023-02-07T00:38:21.704Z,64.13
2023-02-07T00:39:21.924Z,64.23
2023-02-07T00:40:22.043Z,64.13
2023-02-07T00:41:22.211Z,64.13
2023-02-07T00:42:22.404Z,64.13
2023-02-07T00:43:29.669Z,64.23
2023-02-07T00:44:23.749Z,64.23
2023-02-07T00:45:22.919Z,64.34
2023-02-07T00:46:23.192Z,64.23
2023-02-07T00:47:23.237Z,64.23
2023-02-07T00:48:23.448Z,64.13
2023-02-07T00:49:23.585Z,64.13
2023-02-07T00:50:23.741Z,64.23
2023-02-07T00:51:23.903Z,64.13
2023-02-07T00:52:24.120Z,64.13
2023-02-07T00:53:24.242Z,64.13
2023-02-07T00:54:24.420Z,64.16
2023-02-07T00:55:24.613Z,64.16
2023-02-07T00:56:24.763Z,64.13
2023-02-07T00:57:24.932Z,64.13
2023-02-07T00:58:25.093Z,64.13
2023-02-07T00:59:25.264Z,64.16
2023-02-07T01:00:25.439Z,64.06
2023-02-07T01:01:25.659Z,64.06
2023-02-07T01:02:25.765Z,64.06
2023-02-07T01:03:25.925Z,64.16
2023-02-07T01:04:26.119Z,64.16
2023-02-07T01:05:26.288Z,64.26
2023-02-07T01:06:26.430Z,64.16
2023-02-07T01:07:26.588Z,64.06
2023-02-07T01:08:26.766Z,64.06
2023-02-07T01:09:26.928Z,64.06
2023-02-07T01:10:27.120Z,63.95
2023-02-07T01:11:27.292Z,63.95
2023-02-07T01:12:27.453Z,63.95
2023-02-07T01:13:27.618Z,64.06
2023-02-07T01:14:27.804Z,64.16
2023-02-07T01:15:28.050Z,64.16
2023-02-07T01:16:28.169Z,64.16
2023-02-07T01:17:28.362Z,64.06
2023-02-07T01:18:28.518Z,64.06
2023-02-07T01:19:28.673Z,64.06
2023-02-07T01:20:28.854Z,63.95
2023-02-07T01:21:29.040Z,63.95
2023-02-07T01:22:29.197Z,63.95
2023-02-07T01:23:29.365Z,63.95
2023-02-07T01:24:29.571Z,63.95
2023-02-07T01:25:29.727Z,64.06
2023-02-07T01:26:29.945Z,64.06
2023-02-07T01:27:30.070Z,64.06
2023-02-07T01:28:30.233Z,64.06
2023-02-07T01:29:30.404Z,64.06
2023-02-07T01:30:30.622Z,64.06
2023-02-07T01:31:30.802Z,64.06
2023-02-07T01:32:30.921Z,64.06
2023-02-07T01:33:31.097Z,64.16
2023-02-07T01:34:31.301Z,64.16
2023-02-07T01:35:31.452Z,64.26
2023-02-07T01:36:31.633Z,64.26
2023-02-07T01:37:31.771Z,64.16
2023-02-07T01:38:31.957Z,64.16
2023-02-07T01:39:32.125Z,64.26
2023-02-07T01:40:32.294Z,64.37
2023-02-07T01:41:32.491Z,64.37
2023-02-07T01:42:32.638Z,64.37
2023-02-07T01:43:32.795Z,64.47
2023-02-07T01:44:32.968Z,64.71
2023-02-07T01:45:33.123Z,64.69
2023-02-07T01:46:33.338Z,64.58
2023-02-07T01:47:33.465Z,64.58
2023-02-07T01:48:33.652Z,64.58
2023-02-07T01:49:33.809Z,64.61
2023-02-07T01:50:33.969Z,64.58
2023-02-07T01:51:34.134Z,64.71
2023-02-07T01:52:34.340Z,64.69
2023-02-07T01:53:34.490Z,64.71
2023-02-07T01:54:34.649Z,64.82
2023-02-07T01:55:34.802Z,64.82
2023-02-07T01:56:34.986Z,64.92
2023-02-07T01:57:35.191Z,64.92
2023-02-07T01:58:35.317Z,64.82
2023-02-07T01:59:35.551Z,64.92
2023-02-07T02:00:35.665Z,64.92
2023-02-07T02:01:35.862Z,65.03
2023-02-07T02:02:36.056Z,65.03
2023-02-07T02:03:36.149Z,65.03
2023-02-07T02:04:36.320Z,65.13
2023-02-07T02:05:36.843Z,65.13
2023-02-07T02:06:36.656Z,65.23
2023-02-07T02:07:36.823Z,65.23
2023-02-07T02:08:36.988Z,65.23
2023-02-07T02:09:37.152Z,65.13
2023-02-07T02:10:37.337Z,65.13
2023-02-07T02:11:37.495Z,65.13
2023-02-07T02:12:37.706Z,65.13
2023-02-07T02:13:37.834Z,65.13
2023-02-07T02:14:38.040Z,65.13
2023-02-07T02:15:38.606Z,65.03
2023-02-07T02:16:38.393Z,65.03
2023-02-07T02:17:38.555Z,64.92
2023-02-07T02:18:38.718Z,64.92
2023-02-07T02:19:38.876Z,64.82
2023-02-07T02:20:39.058Z,64.82
2023-02-07T02:21:39.207Z,64.82
2023-02-07T02:22:39.406Z,64.71
2023-02-07T02:23:39.569Z,64.82
2023-02-07T02:24:39.763Z,64.71
2023-02-07T02:25:40.090Z,64.71
2023-02-07T02:26:40.079Z,64.61
2023-02-07T02:27:40.242Z,64.61
2023-02-07T02:28:40.409Z,64.61
2023-02-07T02:29:40.607Z,64.61
2023-02-07T02:30:40.769Z,64.61
2023-02-07T02:31:41.034Z,64.50
2023-02-07T02:32:41.085Z,64.50
2023-02-07T02:33:41.245Z,64.50
2023-02-07T02:34:41.462Z,64.50
2023-02-07T02:35:41.599Z,64.50
2023-02-07T02:36:41.806Z,64.50
2023-02-07T02:37:41.941Z,64.61
2023-02-07T02:38:42.130Z,64.61
2023-02-07T02:39:42.330Z,64.61
2023-02-07T02:40:42.454Z,64.64
2023-02-07T02:41:42.612Z,64.74
2023-02-07T02:42:42.822Z,64.61
2023-02-07T02:43:42.963Z,64.64
2023-02-07T02:44:43.161Z,64.64
2023-02-07T02:45:43.324Z,64.64
2023-02-07T02:46:43.536Z,64.64
2023-02-07T02:47:43.651Z,64.53
2023-02-07T02:48:43.869Z,64.53
2023-02-07T02:49:44.027Z,64.43
2023-02-07T02:50:44.208Z,64.43
2023-02-07T02:51:44.363Z,64.32
2023-02-07T02:52:50.675Z,64.22
2023-02-07T02:53:45.704Z,64.22
2023-02-07T02:54:44.863Z,64.22
2023-02-07T02:55:45.035Z,64.12
2023-02-07T02:56:45.220Z,64.12
2023-02-07T02:57:45.388Z,64.12
2023-02-07T02:58:45.551Z,64.01
2023-02-07T02:59:45.729Z,64.01
2023-02-07T03:00:45.919Z,64.01
2023-02-07T03:01:46.101Z,63.90
2023-02-07T03:02:46.250Z,63.80
2023-02-07T03:03:46.431Z,63.80
2023-02-07T03:04:46.593Z,63.70
2023-02-07T03:05:46.752Z,63.70
2023-02-07T03:06:46.936Z,63.70
2023-02-07T03:07:47.118Z,63.80
2023-02-07T03:08:47.290Z,63.80
2023-02-07T03:09:47.457Z,63.93
2023-02-07T03:10:47.619Z,63.83
2023-02-07T03:11:47.789Z,63.80
2023-02-07T03:12:48.001Z,63.90
2023-02-07T03:13:48.138Z,63.93
2023-02-07T03:14:48.323Z,63.80
2023-02-07T03:15:48.506Z,63.73
2023-02-07T03:16:48.652Z,63.52
2023-02-07T03:17:48.823Z,63.52
2023-02-07T03:18:48.995Z,63.52
2023-02-07T03:19:49.183Z,63.52
2023-02-07T03:20:49.308Z,63.31
2023-02-07T03:21:49.474Z,63.42
2023-02-07T03:22:49.642Z,63.31
2023-02-07T03:23:49.798Z,63.52
2023-02-07T03:24:50.012Z,63.42
2023-02-07T03:25:50.140Z,63.31
2023-02-07T03:26:50.307Z,63.20
2023-02-07T03:27:50.490Z,63.31
2023-02-07T03:28:50.651Z,63.20
2023-02-07T03:29:50.867Z,63.10
2023-02-07T03:30:51.012Z,63.20
2023-02-07T03:31:51.146Z,63.20
2023-02-07T03:32:51.316Z,63.20
2023-02-07T03:33:51.496Z,63.10
2023-02-07T03:34:51.688Z,63.10
2023-02-07T03:35:51.829Z,62.99
2023-02-07T03:36:52.007Z,62.99
2023-02-07T03:37:52.173Z,62.99
2023-02-07T03:38:52.336Z,63.02
2023-02-07T03:39:52.518Z,63.10
2023-02-07T03:40:52.687Z,63.13
2023-02-07T03:41:52.845Z,63.13
2023-02-07T03:42:53.018Z,63.34
2023-02-07T03:43:53.171Z,63.23
2023-02-07T03:44:53.367Z,63.23
2023-02-07T03:45:53.527Z,63.23
2023-02-07T03:46:53.730Z,63.34
2023-02-07T03:47:53.886Z,63.42
2023-02-07T03:48:54.070Z,63.34
2023-02-07T03:49:54.262Z,63.23
2023-02-07T03:50:54.396Z,63.10
2023-02-07T03:51:54.552Z,63.13
2023-02-07T03:52:54.720Z,63.02
2023-02-07T03:53:54.900Z,63.13
2023-02-07T03:54:55.071Z,63.23
2023-02-07T03:55:55.244Z,63.34
2023-02-07T03:56:55.397Z,63.44
2023-02-07T03:57:55.586Z,63.44
2023-02-07T03:58:55.758Z,63.23
2023-02-07T03:59:55.940Z,63.23
2023-02-07T04:00:56.114Z,63.34
2023-02-07T04:01:56.276Z,63.34
2023-02-07T04:02:56.427Z,63.44
2023-02-07T04:03:56.594Z,63.44
2023-02-07T04:04:56.793Z,63.44
2023-02-07T04:05:56.927Z,63.44
2023-02-07T04:06:57.110Z,63.34
2023-02-07T04:07:57.277Z,63.44
2023-02-07T04:08:57.436Z,63.44
2023-02-07T04:09:57.685Z,63.44
2023-02-07T04:10:57.800Z,63.44
2023-02-07T04:11:57.954Z,63.34
2023-02-07T04:12:58.129Z,63.44
2023-02-07T04:13:58.277Z,63.44
2023-02-07T04:14:58.477Z,63.34
2023-02-07T04:15:58.635Z,63.23
2023-02-07T04:16:58.780Z,63.23
2023-02-07T04:17:58.947Z,63.23
2023-02-07T04:18:59.138Z,63.23
2023-02-07T04:19:59.290Z,63.37
2023-02-07T04:20:59.457Z,63.37
2023-02-07T04:21:59.629Z,63.34
2023-02-07T04:22:59.799Z,63.23
2023-02-07T04:23:59.980Z,63.26
2023-02-07T04:25:00.185Z,63.37
2023-02-07T04:26:00.357Z,63.47
2023-02-07T04:27:00.524Z,63.47
2023-02-07T04:28:00.723Z,63.55
2023-02-07T04:29:00.866Z,63.57
2023-02-07T04:30:01.033Z,63.57
2023-02-07T04:31:01.210Z,63.55
2023-02-07T04:32:01.467Z,63.47
2023-02-07T04:33:01.547Z,63.57
2023-02-07T04:34:01.719Z,63.47
2023-02-07T04:35:01.894Z,63.57
2023-02-07T04:36:02.074Z,63.57
2023-02-07T04:37:02.228Z,63.47
2023-02-07T04:38:02.380Z,63.37
2023-02-07T04:39:02.536Z,63.37
2023-02-07T04:40:02.709Z,63.37
2023-02-07T04:41:02.884Z,63.16
2023-02-07T04:42:03.044Z,63.16
2023-02-07T04:43:03.217Z,63.16
2023-02-07T04:44:03.377Z,63.16
2023-02-07T04:45:03.545Z,63.16
2023-02-07T04:46:03.880Z,63.16
2023-02-07T04:47:03.906Z,63.06
2023-02-07T04:48:04.075Z,62.84
2023-02-07T04:49:04.241Z,62.95
2023-02-07T04:50:04.412Z,62.84
2023-02-07T04:51:04.611Z,62.95
2023-02-07T04:52:04.735Z,63.06
2023-02-07T04:53:04.915Z,63.16
2023-02-07T04:54:05.098Z,63.16
2023-02-07T04:55:05.251Z,63.16
2023-02-07T04:56:05.466Z,63.16
2023-02-07T04:57:05.631Z,63.16
2023-02-07T04:58:05.774Z,63.16
2023-02-07T04:59:05.981Z,63.16
2023-02-07T05:00:06.124Z,63.16
2023-02-07T05:01:06.335Z,63.18
2023-02-07T05:02:06.460Z,63.18
2023-02-07T05:03:06.665Z,63.18
2023-02-07T05:04:06.835Z,63.06
2023-02-07T05:05:06.977Z,63.08
2023-02-07T05:06:07.161Z,62.98
2023-02-07T05:07:07.339Z,62.95
2023-02-07T05:08:07.504Z,62.98
2023-02-07T05:09:07.663Z,62.87
2023-02-07T05:10:07.847Z,62.84
2023-02-07T05:11:08.014Z,62.87
2023-02-07T05:12:08.194Z,62.77
2023-02-07T05:13:08.356Z,62.77
2023-02-07T05:14:08.526Z,62.77
2023-02-07T05:15:08.693Z,62.77
2023-02-07T05:16:08.889Z,62.98
2023-02-07T05:17:09.049Z,62.98
2023-02-07T05:18:09.219Z,62.98
2023-02-07T05:19:09.366Z,62.98
2023-02-07T05:20:09.541Z,63.08
2023-02-07T05:21:09.716Z,62.98
2023-02-07T05:22:09.884Z,63.08
2023-02-07T05:23:10.056Z,63.08
2023-02-07T05:24:10.216Z,62.98
2023-02-07T05:25:10.377Z,62.77
2023-02-07T05:26:10.550Z,62.77
2023-02-07T05:27:10.728Z,62.77
2023-02-07T05:28:10.948Z,62.66
2023-02-07T05:29:11.071Z,62.66
2023-02-07T05:30:11.237Z,62.66
2023-02-07T05:31:11.467Z,62.56
2023-02-07T05:32:11.591Z,62.45
2023-02-07T05:33:11.716Z,62.45
2023-02-07T05:34:11.889Z,62.45
2023-02-07T05:35:12.064Z,62.35
2023-02-07T05:36:12.220Z,62.45
2023-02-07T05:37:12.390Z,62.45
2023-02-07T05:38:12.598Z,62.24
2023-02-07T05:39:12.753Z,62.04
2023-02-07T05:40:12.945Z,62.04
2023-02-07T05:41:13.070Z,62.04
2023-02-07T05:42:13.249Z,61.93
2023-02-07T05:43:13.447Z,61.83
2023-02-07T05:44:13.639Z,61.83
2023-02-07T05:45:13.775Z,61.93
2023-02-07T05:46:13.974Z,62.07
2023-02-07T05:47:14.142Z,62.07
2023-02-07T05:48:14.278Z,61.93
2023-02-07T05:49:14.458Z,61.93
2023-02-07T05:50:14.627Z,61.83
2023-02-07T05:51:14.796Z,61.96
2023-02-07T05:52:15.024Z,62.07
2023-02-07T05:53:15.164Z,62.07
2023-02-07T05:54:15.345Z,62.07
2023-02-07T05:55:15.512Z,62.07
2023-02-07T05:56:15.692Z,62.07
2023-02-07T05:57:15.891Z,62.07
2023-02-07T05:58:16.029Z,62.07
2023-02-07T05:59:16.193Z,62.17
2023-02-07T06:00:16.372Z,62.17
2023-02-07T06:01:16.554Z,62.17
2023-02-07T06:02:16.768Z,62.17
2023-02-07T06:03:16.904Z,62.17
2023-02-07T06:04:17.086Z,62.17
2023-02-07T06:05:17.273Z,62.07
2023-02-07T06:06:17.430Z,61.96
2023-02-07T06:07:17.622Z,61.85
2023-02-07T06:08:17.778Z,61.85
2023-02-07T06:09:17.962Z,61.88
2023-02-07T06:10:18.123Z,61.96
2023-02-07T06:11:18.290Z,61.88
2023-02-07T06:12:18.522Z,61.96
2023-02-07T06:13:18.649Z,62.07
2023-02-07T06:14:18.818Z,62.07
2023-02-07T06:15:18.988Z,62.07
2023-02-07T06:16:19.176Z,62.07
2023-02-07T06:17:19.360Z,61.96
2023-02-07T06:18:19.504Z,61.85
2023-02-07T06:19:19.676Z,61.96
2023-02-07T06:20:19.862Z,61.85
2023-02-07T06:21:20.059Z,61.88
2023-02-07T06:22:20.194Z,61.78
2023-02-07T06:23:20.360Z,61.75
2023-02-07T06:24:20.544Z,61.78
2023-02-07T06:25:21.503Z,61.78
2023-02-07T06:26:20.909Z,61.68
2023-02-07T06:27:21.090Z,61.68
2023-02-07T06:28:21.338Z,61.78
2023-02-07T06:29:21.433Z,61.78
2023-02-07T06:30:21.616Z,61.88
2023-02-07T06:31:21.858Z,61.88
2023-02-07T06:32:21.952Z,61.88
2023-02-07T06:33:22.144Z,61.88
2023-02-07T06:34:22.322Z,61.99
2023-02-07T06:35:22.512Z,61.88
2023-02-07T06:36:22.756Z,61.88
2023-02-07T06:37:22.856Z,61.91
2023-02-07T06:38:23.042Z,61.99
2023-02-07T06:39:23.199Z,61.88
2023-02-07T06:40:23.412Z,61.88
2023-02-07T06:41:23.567Z,61.88
2023-02-07T06:42:23.726Z,61.78
2023-02-07T06:43:23.883Z,61.78
2023-02-07T06:44:24.064Z,61.88
2023-02-07T06:45:24.267Z,61.88
2023-02-07T06:46:24.464Z,61.78
2023-02-07T06:47:24.601Z,61.78
2023-02-07T06:48:24.796Z,61.68
2023-02-07T06:49:24.990Z,61.78
2023-02-07T06:50:25.194Z,61.68
2023-02-07T06:51:25.316Z,61.68
2023-02-07T06:52:25.490Z,61.68
2023-02-07T06:53:25.685Z,61.68
2023-02-07T06:54:25.847Z,61.68
2023-02-07T06:55:26.037Z,61.68
2023-02-07T06:56:26.191Z,61.57
2023-02-07T06:57:26.344Z,61.57
2023-02-07T06:58:26.538Z,61.68
2023-02-07T06:59:26.721Z,61.68
2023-02-07T07:00:26.911Z,61.68
2023-02-07T07:01:27.028Z,61.68
2023-02-07T07:02:27.218Z,61.68
2023-02-07T07:03:27.402Z,61.57
2023-02-07T07:04:27.662Z,61.57
2023-02-07T07:05:27.789Z,61.46
2023-02-07T07:06:27.965Z,61.57
2023-02-07T07:07:28.104Z,61.46
2023-02-07T07:08:28.275Z,61.57
2023-02-07T07:09:28.452Z,61.57
2023-02-07T07:10:28.696Z,61.57
2023-02-07T07:11:28.782Z,61.68
2023-02-07T07:12:28.966Z,66.60
2023-02-07T07:13:29.154Z,73.40
2023-02-07T07:14:29.302Z,73.58
2023-02-07T07:15:29.457Z,70.96
2023-02-07T07:16:29.668Z,68.76
2023-02-07T07:17:29.826Z,67.50
2023-02-07T07:18:29.993Z,66.77
2023-02-07T07:19:30.166Z,66.33
2023-02-07T07:20:30.315Z,66.01
2023-02-07T07:21:30.476Z,65.73
2023-02-07T07:22:30.663Z,65.59
2023-02-07T07:23:30.854Z,65.49
2023-02-07T07:24:30.984Z,65.41
2023-02-07T07:25:31.132Z,67.09
2023-02-07T07:26:43.056Z,72.08
2023-02-07T07:27:32.504Z,72.71
2023-02-07T07:28:31.678Z,70.72
2023-02-07T07:29:31.820Z,68.84
2023-02-07T07:30:32.023Z,67.55
2023-02-07T07:31:32.275Z,66.93
2023-02-07T07:32:34.491Z,66.50
2023-02-07T07:33:32.531Z,66.19
2023-02-07T07:34:32.667Z,65.88
2023-02-07T07:35:32.858Z,65.88
2023-02-07T07:36:33.026Z,65.56
2023-02-07T07:37:33.210Z,65.46
2023-02-07T07:38:33.386Z,65.46
2023-02-07T07:39:33.518Z,65.67
2023-02-07T07:40:33.704Z,65.77
2023-02-07T07:41:33.853Z,65.56
2023-02-07T07:42:34.060Z,65.46
2023-02-07T07:43:34.204Z,65.36
2023-02-07T07:44:35.720Z,65.25
2023-02-07T07:45:34.534Z,65.11
2023-02-07T07:46:34.727Z,65.01
2023-02-07T07:47:34.881Z,65.01
2023-02-07T07:48:35.123Z,65.01
2023-02-07T07:49:35.218Z,65.01
2023-02-07T07:50:35.387Z,64.98
2023-02-07T07:51:35.542Z,64.98
2023-02-07T07:52:35.712Z,64.98
2023-02-07T07:53:35.891Z,64.87
2023-02-07T07:54:36.042Z,64.95
2023-02-07T07:55:36.223Z,64.84
2023-02-07T07:56:36.412Z,64.61
2023-02-07T07:57:36.591Z,64.50
2023-02-07T07:58:36.797Z,64.47
2023-02-07T07:59:36.950Z,64.37
2023-02-07T08:00:37.485Z,64.16
2023-02-07T08:01:37.304Z,64.03
2023-02-07T08:02:37.484Z,64.03
2023-02-07T08:03:37.733Z,63.68
2023-02-07T08:04:37.861Z,63.55
2023-02-07T08:05:37.992Z,63.34
2023-02-07T08:06:38.172Z,63.34
2023-02-07T08:07:38.377Z,63.00
2023-02-07T08:08:38.574Z,62.79
2023-02-07T08:09:38.702Z,62.45
2023-02-07T08:10:39.206Z,62.32
2023-02-07T08:11:39.033Z,62.11
2023-02-07T08:12:39.221Z,61.98
2023-02-07T08:13:39.427Z,61.88
2023-02-07T08:14:39.563Z,61.74
2023-02-07T08:15:39.743Z,61.54
2023-02-07T08:16:39.931Z,61.40
2023-02-07T08:17:40.128Z,61.30
2023-02-07T08:18:40.329Z,61.07
2023-02-07T08:19:40.486Z,60.93
2023-02-07T08:20:41.073Z,60.83
2023-02-07T08:21:40.836Z,60.60
2023-02-07T08:22:41.008Z,61.74
2023-02-07T08:23:41.205Z,62.54
2023-02-07T08:24:41.383Z,61.88
2023-02-07T08:25:41.524Z,61.13
2023-02-07T08:26:41.707Z,60.30
2023-02-07T08:27:41.896Z,59.55
2023-02-07T08:28:42.082Z,58.90
2023-02-07T08:29:42.286Z,58.36
2023-02-07T08:30:42.548Z,58.15
2023-02-07T08:31:42.660Z,57.71
2023-02-07T08:32:42.771Z,57.37
2023-02-07T08:33:42.938Z,57.06
2023-02-07T08:34:43.143Z,56.73
2023-02-07T08:35:43.314Z,56.39
2023-02-07T08:36:43.461Z,56.08
2023-02-07T08:37:43.649Z,55.74
2023-02-07T08:38:43.837Z,55.41
2023-02-07T08:39:44.036Z,55.10
2023-02-07T08:40:44.210Z,55.59
2023-02-07T08:41:44.348Z,57.52
2023-02-07T08:42:44.604Z,59.79
2023-02-07T08:43:44.714Z,59.04
2023-02-07T08:44:44.870Z,57.98
2023-02-07T08:45:45.094Z,56.72
2023-02-07T08:46:45.201Z,55.26
2023-02-07T08:47:45.386Z,54.61
2023-02-07T08:48:45.570Z,54.10
2023-02-07T08:49:45.753Z,53.35
2023-02-07T08:50:45.953Z,52.92
2023-02-07T08:51:46.102Z,52.40
2023-02-07T08:52:46.278Z,52.28
2023-02-07T08:53:46.499Z,51.84
2023-02-07T08:54:46.632Z,51.61
2023-02-07T08:55:46.840Z,51.51
2023-02-07T08:56:46.991Z,50.87
2023-02-07T08:57:47.164Z,50.85
2023-02-07T08:58:47.335Z,50.23
2023-02-07T08:59:47.507Z,49.69
2023-02-07T09:00:47.730Z,49.67
2023-02-07T09:01:47.863Z,49.26
2023-02-07T09:02:48.027Z,48.83
2023-02-07T09:03:48.221Z,48.60
2023-02-07T09:04:48.393Z,48.07
2023-02-07T09:05:48.569Z,47.76
2023-02-07T09:06:48.750Z,47.64
2023-02-07T09:07:48.905Z,47.20
2023-02-07T09:08:49.066Z,46.98
2023-02-07T09:09:49.270Z,46.66
2023-02-07T09:10:49.452Z,46.25
2023-02-07T09:11:49.586Z,45.81
2023-02-07T09:12:49.736Z,45.59
2023-02-07T09:13:49.921Z,45.26
2023-02-07T09:14:50.077Z,44.93
2023-02-07T09:15:50.228Z,44.63
2023-02-07T09:16:50.436Z,44.31
2023-02-07T09:17:50.595Z,44.00
2023-02-07T09:18:51.208Z,43.77
2023-02-07T09:19:50.947Z,43.57
2023-02-07T09:20:51.080Z,43.35
2023-02-07T09:21:51.262Z,43.14
2023-02-07T09:22:51.450Z,43.14
2023-02-07T09:23:51.602Z,42.83
2023-02-07T09:24:51.752Z,42.74
2023-02-07T09:25:51.932Z,42.71
2023-02-07T09:26:52.077Z,42.41
2023-02-07T09:27:52.305Z,42.10
2023-02-07T09:28:52.430Z,41.99
2023-02-07T09:29:52.615Z,41.88
2023-02-07T09:30:53.253Z,41.58
2023-02-07T09:31:53.016Z,41.46
2023-02-07T09:32:53.124Z,41.25
2023-02-07T09:33:53.299Z,41.15
2023-02-07T09:34:53.451Z,41.05
2023-02-07T09:35:53.648Z,40.84
2023-02-07T09:36:53.801Z,40.84
2023-02-07T09:37:53.997Z,40.95
2023-02-07T09:38:54.170Z,42.37
2023-02-07T09:39:54.367Z,46.21
2023-02-07T09:40:54.545Z,46.09
2023-02-07T09:41:54.692Z,45.37
2023-02-07T09:42:54.894Z,44.65
2023-02-07T09:43:55.221Z,44.13
2023-02-07T09:44:55.417Z,43.61
2023-02-07T09:45:55.441Z,43.59
2023-02-07T09:46:55.574Z,42.27
2023-02-07T09:47:55.743Z,41.14
2023-02-07T09:48:55.911Z,42.03
2023-02-07T09:49:56.095Z,40.51
2023-02-07T09:50:56.245Z,40.00
2023-02-07T09:51:56.423Z,39.39
2023-02-07T09:52:56.622Z,42.21
2023-02-07T09:53:56.793Z,42.21
2023-02-07T09:54:56.969Z,41.00
2023-02-07T09:55:57.144Z,39.88
2023-02-07T09:56:57.274Z,39.28
2023-02-07T09:57:57.499Z,38.97
2023-02-07T09:58:57.634Z,38.87
2023-02-07T09:59:57.875Z,38.57
2023-02-07T10:00:58.037Z,38.67
2023-02-07T10:01:58.181Z,38.26
2023-02-07T10:02:58.393Z,37.86
2023-02-07T10:03:58.530Z,37.65
2023-02-07T10:04:58.732Z,37.55
2023-02-07T10:06:03.613Z,37.88
2023-02-07T10:07:00.045Z,37.98
2023-02-07T10:07:59.228Z,38.18
2023-02-07T10:08:59.403Z,38.08
2023-02-07T10:09:59.568Z,38.28
2023-02-07T10:10:59.712Z,38.39
2023-02-07T10:11:59.923Z,38.39
2023-02-07T10:13:00.109Z,38.48
2023-02-07T10:14:00.312Z,39.39
2023-02-07T10:15:00.481Z,39.37
2023-02-07T10:16:00.695Z,38.97
2023-02-07T10:17:00.783Z,38.97
2023-02-07T10:18:00.993Z,39.46
2023-02-07T10:19:01.161Z,38.95
2023-02-07T10:20:01.358Z,38.85
2023-02-07T10:21:03.978Z,38.33
2023-02-07T10:22:01.642Z,37.52
2023-02-07T10:23:01.814Z,37.32
2023-02-07T10:24:02.028Z,38.43
2023-02-07T10:25:02.169Z,37.92
2023-02-07T10:26:02.325Z,38.02
2023-02-07T10:27:02.501Z,37.62
2023-02-07T10:28:02.667Z,38.02
2023-02-07T10:29:02.825Z,38.33
2023-02-07T10:30:02.975Z,38.13
2023-02-07T10:31:03.212Z,37.52
2023-02-07T10:32:03.365Z,37.50
2023-02-07T10:33:03.524Z,38.61
2023-02-07T10:34:03.668Z,37.60
2023-02-07T10:35:03.864Z,38.31
2023-02-07T10:36:04.058Z,37.60
2023-02-07T10:37:04.180Z,39.12
2023-02-07T10:38:04.403Z,37.40
2023-02-07T10:39:09.464Z,37.30
2023-02-07T10:40:05.733Z,37.50
2023-02-07T10:41:04.899Z,36.90
2023-02-07T10:42:05.063Z,36.59
2023-02-07T10:43:05.344Z,37.50
2023-02-07T10:44:05.422Z,38.59
2023-02-07T10:45:05.569Z,37.18
2023-02-07T10:46:06.570Z,37.79
2023-02-07T10:47:05.935Z,38.29
2023-02-07T10:48:06.084Z,38.90
2023-02-07T10:49:06.286Z,39.18
2023-02-07T10:50:06.450Z,40.09
2023-02-07T10:51:06.597Z,38.78
2023-02-07T10:52:06.797Z,38.57
2023-02-07T10:53:06.937Z,38.48
2023-02-07T10:54:07.146Z,37.15
2023-02-07T10:55:07.316Z,37.06
2023-02-07T10:56:07.516Z,36.86
2023-02-07T10:57:07.664Z,37.37
2023-02-07T10:58:21.113Z,36.96
2023-02-07T10:59:08.989Z,36.55
2023-02-07T11:00:08.167Z,36.86
2023-02-07T11:01:08.377Z,37.16
2023-02-07T11:02:09.998Z,37.46
2023-02-07T11:03:08.739Z,37.15
2023-02-07T11:04:08.890Z,39.06
2023-02-07T11:05:09.050Z,40.17
2023-02-07T11:06:09.212Z,40.96
2023-02-07T11:07:09.391Z,40.16
2023-02-07T11:08:10.229Z,40.34
2023-02-07T11:09:09.825Z,39.94
2023-02-07T11:10:09.962Z,39.72
2023-02-07T11:11:10.118Z,39.21
2023-02-07T11:12:10.273Z,38.99
2023-02-07T11:13:10.432Z,38.59
2023-02-07T11:14:10.622Z,38.47
2023-02-07T11:15:10.766Z,37.96
2023-02-07T11:16:10.993Z,37.95
2023-02-07T11:17:11.102Z,37.95
2023-02-07T11:18:11.284Z,37.65
2023-02-07T11:19:11.442Z,37.52
2023-02-07T11:20:11.625Z,37.23
2023-02-07T11:21:11.774Z,37.10
2023-02-07T11:22:11.973Z,36.90
2023-02-07T11:23:12.116Z,36.69
2023-02-07T11:24:12.328Z,36.38
2023-02-07T11:25:12.518Z,36.08
2023-02-07T11:26:12.675Z,36.18
2023-02-07T11:27:12.859Z,36.08
2023-02-07T11:28:13.082Z,35.77
2023-02-07T11:29:13.235Z,35.86
2023-02-07T11:30:13.397Z,35.86
2023-02-07T11:31:13.651Z,35.75
2023-02-07T11:32:13.733Z,35.64
2023-02-07T11:33:13.878Z,35.55
2023-02-07T11:34:14.092Z,35.43
2023-02-07T11:35:14.255Z,35.33
2023-02-07T11:36:14.422Z,35.11
2023-02-07T11:37:14.581Z,35.01
2023-02-07T11:38:14.742Z,34.80
2023-02-07T11:39:14.966Z,34.80
2023-02-07T11:40:15.133Z,34.58
2023-02-07T11:41:15.305Z,34.58
2023-02-07T11:42:15.457Z,34.48
2023-02-07T11:43:15.633Z,34.46
2023-02-07T11:44:15.793Z,34.26
2023-02-07T11:45:15.968Z,34.24
2023-02-07T11:46:16.164Z,34.14
2023-02-07T11:47:16.311Z,33.62
2023-02-07T11:48:16.465Z,33.43
2023-02-07T11:49:16.633Z,33.51
2023-02-07T11:50:16.838Z,33.41
2023-02-07T11:51:16.959Z,33.21
2023-02-07T11:52:17.127Z,33.00
2023-02-07T11:53:17.309Z,32.78
2023-02-07T11:54:17.526Z,32.78
2023-02-07T11:55:17.694Z,32.67
2023-02-07T11:56:17.837Z,32.67
2023-02-07T11:57:18.026Z,32.75
2023-02-07T11:58:18.166Z,32.45
2023-02-07T11:59:18.328Z,31.55
2023-02-07T12:00:18.494Z,31.25
2023-02-07T12:01:18.666Z,30.85
2023-02-07T12:02:18.882Z,30.95
2023-02-07T12:03:19.001Z,30.75
2023-02-07T12:04:19.160Z,30.85
2023-02-07T12:05:19.339Z,31.65
2023-02-07T12:06:19.493Z,31.85
2023-02-07T12:07:19.672Z,31.43
2023-02-07T12:08:19.833Z,31.93
2023-02-07T12:09:20.007Z,31.73
2023-02-07T12:10:20.188Z,31.32
2023-02-07T12:11:20.371Z,30.91
2023-02-07T12:12:20.526Z,31.01
2023-02-07T12:13:20.686Z,31.19
2023-02-07T12:14:20.874Z,31.09
2023-02-07T12:15:21.022Z,30.58
2023-02-07T12:16:21.240Z,30.77
2023-02-07T12:17:21.378Z,30.86
2023-02-07T12:18:21.562Z,30.35
2023-02-07T12:19:21.788Z,30.35
2023-02-07T12:20:21.882Z,30.13
2023-02-07T12:21:22.051Z,29.94
2023-02-07T12:22:22.227Z,29.72
2023-02-07T12:23:41.156Z,29.13
2023-02-07T12:24:23.547Z,29.51
2023-02-07T12:25:22.752Z,29.61
2023-02-07T12:26:22.928Z,29.39
2023-02-07T12:27:23.133Z,29.20
2023-02-07T12:28:23.268Z,29.08
2023-02-07T12:29:23.447Z,29.08
2023-02-07T12:30:23.632Z,28.97
2023-02-07T12:31:23.889Z,28.88
2023-02-07T12:32:24.031Z,28.76
2023-02-07T12:33:24.107Z,28.56
2023-02-07T12:34:24.250Z,28.55
2023-02-07T12:35:24.448Z,28.55
2023-02-07T12:36:24.614Z,28.45
2023-02-07T12:37:24.783Z,28.23
2023-02-07T12:38:24.937Z,28.23
2023-02-07T12:39:25.123Z,27.94
2023-02-07T12:40:25.317Z,27.74
2023-02-07T12:41:25.539Z,27.55
2023-02-07T12:42:25.656Z,27.44
2023-02-07T12:43:25.854Z,27.33
2023-02-07T12:44:26.030Z,27.14
2023-02-07T12:45:26.270Z,26.93
2023-02-07T12:46:26.381Z,26.74
2023-02-07T12:47:26.572Z,26.73
2023-02-07T12:48:26.720Z,26.53
2023-02-07T12:49:26.889Z,26.53
2023-02-07T12:50:27.076Z,26.43
2023-02-07T12:51:27.278Z,26.42
2023-02-07T12:52:27.414Z,26.32
2023-02-07T12:53:27.600Z,26.12
2023-02-07T12:54:27.742Z,26.12